createdAt,value
2023-05-19T00:00:37.906Z,9.00
2023-05-19T00:03:06.129Z,11.80
2023-05-19T00:05:40.817Z,11.50
2023-05-19T00:08:10.642Z,11.70
2023-05-19T00:10:39.340Z,12.40
2023-05-19T00:13:07.727Z,14.10
2023-05-19T00:15:36.202Z,16.30
2023-05-19T00:18:03.855Z,14.10
2023-05-19T00:20:31.509Z,13.10
2023-05-19T00:22:59.026Z,10.50
2023-05-19T00:25:27.234Z,15.10
2023-05-19T00:27:54.611Z,13.70
2023-05-19T00:30:23.114Z,13.70
2023-05-19T00:32:51.162Z,16.20
2023-05-19T00:35:18.886Z,13.90
2023-05-19T00:37:46.722Z,14.80
2023-05-19T00:40:14.447Z,13.40
2023-05-19T00:42:42.402Z,12.80
2023-05-19T00:45:10.749Z,15.90
2023-05-19T00:47:39.847Z,12.80
2023-05-19T00:50:07.651Z,12.60
2023-05-19T00:52:35.364Z,15.40
2023-05-19T00:55:02.922Z,16.70
2023-05-19T00:57:30.716Z,19.10
2023-05-19T00:59:58.120Z,15.80
2023-05-19T01:02:25.617Z,14.20
2023-05-19T01:04:53.620Z,17.20
2023-05-19T01:07:21.227Z,15.00
2023-05-19T01:09:49.144Z,14.20
2023-05-19T01:12:16.617Z,18.80
2023-05-19T01:14:44.406Z,17.30
2023-05-19T01:17:27.642Z,16.90
2023-05-19T01:20:16.217Z,14.90
2023-05-19T01:23:36.672Z,16.10
2023-05-19T01:26:20.972Z,15.40
2023-05-19T01:29:26.917Z,18.90
2023-05-19T01:31:59.546Z,16.50
2023-05-19T01:34:28.093Z,15.00
2023-05-19T01:36:56.301Z,15.10
2023-05-19T01:39:23.744Z,16.10
2023-05-19T01:41:52.024Z,15.30
2023-05-19T01:44:22.199Z,12.60
2023-05-19T01:46:50.652Z,18.00
2023-05-19T01:49:18.174Z,14.80
2023-05-19T01:51:45.886Z,17.30
2023-05-19T01:54:13.290Z,17.20
2023-05-19T01:57:08.230Z,16.00
2023-05-19T01:59:50.892Z,17.40
2023-05-19T02:02:31.270Z,17.40
2023-05-19T02:05:10.473Z,16.70
2023-05-19T02:07:46.980Z,18.90
2023-05-19T02:10:31.223Z,16.50
2023-05-19T02:13:04.949Z,18.60
2023-05-19T02:15:42.362Z,16.50
2023-05-19T02:18:12.008Z,17.50
2023-05-19T02:20:40.768Z,19.60
2023-05-19T02:23:08.185Z,17.40
2023-05-19T02:25:35.763Z,19.70
2023-05-19T02:28:03.221Z,14.40
2023-05-19T02:30:32.157Z,15.20
2023-05-19T02:33:00.746Z,21.20
2023-05-19T02:35:28.277Z,14.50
2023-05-19T02:37:55.658Z,19.30
2023-05-19T02:40:23.338Z,17.00
2023-05-19T02:42:50.895Z,20.40
2023-05-19T02:45:18.288Z,23.20
2023-05-19T02:47:46.148Z,20.40
2023-05-19T02:50:13.703Z,18.60
2023-05-19T02:52:41.090Z,15.90
2023-05-19T02:55:09.034Z,16.00
2023-05-19T02:57:36.495Z,15.40
2023-05-19T03:00:09.056Z,19.00
2023-05-19T03:02:36.560Z,17.40
2023-05-19T03:05:04.787Z,23.90
2023-05-19T03:07:33.793Z,19.40
2023-05-19T03:10:04.097Z,20.10
2023-05-19T03:12:32.640Z,19.00
2023-05-19T03:15:01.097Z,21.70
2023-05-19T03:17:33.794Z,18.20
2023-05-19T03:20:02.010Z,18.80
2023-05-19T03:22:29.377Z,17.00
2023-05-19T03:24:58.596Z,15.80
2023-05-19T03:27:26.031Z,19.20
2023-05-19T03:29:54.120Z,18.50
2023-05-19T03:32:21.659Z,20.00
2023-05-19T03:34:49.216Z,18.80
2023-05-19T03:37:16.597Z,17.10
2023-05-19T03:39:44.184Z,19.10
2023-05-19T03:42:11.667Z,19.00
2023-05-19T03:44:39.055Z,22.30
2023-05-19T03:47:06.603Z,19.20
2023-05-19T03:49:34.004Z,16.40
2023-05-19T03:52:03.479Z,24.20
2023-05-19T03:54:31.762Z,22.90
2023-05-19T03:56:59.258Z,20.30
2023-05-19T03:59:26.671Z,23.30
2023-05-19T04:01:54.525Z,22.70
2023-05-19T04:04:22.041Z,20.50
2023-05-19T04:06:49.614Z,19.80
2023-05-19T04:09:17.070Z,19.90
2023-05-19T04:11:44.494Z,17.40
2023-05-19T04:14:12.021Z,20.10
2023-05-19T04:16:39.556Z,20.80
2023-05-19T04:19:07.069Z,20.10
2023-05-19T04:21:34.649Z,22.10
2023-05-19T04:24:02.715Z,23.20
2023-05-19T04:26:31.010Z,18.10
2023-05-19T04:28:58.623Z,22.50
2023-05-19T04:31:27.526Z,19.50
2023-05-19T04:33:55.250Z,21.60
2023-05-19T04:36:22.739Z,20.90
2023-05-19T04:38:54.782Z,21.40
2023-05-19T04:41:23.088Z,24.20
2023-05-19T04:43:50.576Z,23.10
2023-05-19T04:46:17.947Z,20.90
2023-05-19T04:48:45.836Z,23.80
2023-05-19T04:51:14.413Z,22.30
2023-05-19T04:53:42.786Z,23.40
2023-05-19T04:56:13.744Z,22.60
2023-05-19T04:58:42.216Z,20.60
2023-05-19T05:01:09.679Z,22.10
2023-05-19T05:03:37.193Z,28.80
2023-05-19T05:06:05.018Z,22.10
2023-05-19T05:08:32.933Z,19.80
2023-05-19T05:11:01.462Z,22.60
2023-05-19T05:13:29.591Z,23.00
2023-05-19T05:15:57.745Z,18.70
2023-05-19T05:18:26.451Z,20.80
2023-05-19T05:20:54.577Z,21.70
2023-05-19T05:23:22.810Z,21.60
2023-05-19T05:25:50.703Z,17.20
2023-05-19T05:28:18.237Z,23.20
2023-05-19T05:30:46.488Z,18.50
2023-05-19T05:33:14.121Z,21.20
2023-05-19T05:35:41.687Z,18.50
2023-05-19T05:38:11.552Z,20.10
2023-05-19T05:40:39.144Z,20.20
2023-05-19T05:43:06.476Z,19.40
2023-05-19T05:45:34.290Z,19.60
2023-05-19T05:48:02.558Z,20.20
2023-05-19T05:50:31.100Z,17.80
2023-05-19T05:53:01.622Z,17.00
2023-05-19T05:55:30.143Z,18.80
2023-05-19T05:57:59.063Z,21.30
2023-05-19T06:00:28.376Z,22.40
2023-05-19T06:02:57.430Z,19.50
2023-05-19T06:05:25.297Z,15.50
2023-05-19T06:07:53.028Z,17.60
2023-05-19T06:10:20.652Z,19.40
2023-05-19T06:12:48.153Z,21.70
2023-05-19T06:15:15.584Z,18.90
2023-05-19T06:17:43.054Z,23.60
2023-05-19T06:20:13.030Z,17.10
2023-05-19T06:22:40.495Z,18.00
2023-05-19T06:25:09.140Z,20.00
2023-05-19T06:27:36.521Z,19.10
2023-05-19T06:30:04.362Z,15.30
2023-05-19T06:32:31.957Z,17.90
2023-05-19T06:34:59.623Z,17.20
2023-05-19T06:37:31.914Z,16.00
2023-05-19T06:39:59.392Z,17.50
2023-05-19T06:42:26.951Z,16.40
2023-05-19T06:44:56.085Z,21.10
2023-05-19T06:47:23.536Z,17.70
2023-05-19T06:49:54.908Z,17.40
2023-05-19T06:54:50.751Z,15.50
2023-05-19T06:57:18.269Z,13.20
2023-05-19T06:59:46.806Z,15.80
2023-05-19T07:02:14.344Z,16.30
2023-05-19T07:04:42.628Z,15.90
2023-05-19T07:07:10.168Z,14.90
2023-05-19T07:09:37.623Z,15.80
2023-05-19T07:12:06.042Z,15.40
2023-05-19T07:14:33.452Z,16.30
2023-05-19T07:17:00.886Z,16.10
2023-05-19T07:19:28.605Z,13.70
2023-05-19T07:21:57.170Z,13.20
2023-05-19T07:24:25.156Z,11.80
2023-05-19T07:26:52.577Z,11.90
2023-05-19T07:29:19.974Z,11.90
2023-05-19T07:31:47.496Z,13.00
2023-05-19T07:34:15.061Z,12.70
2023-05-19T07:36:42.502Z,13.20
2023-05-19T07:39:10.464Z,16.40
2023-05-19T07:41:38.560Z,14.80
2023-05-19T07:44:07.829Z,15.30
2023-05-19T07:46:36.179Z,13.30
2023-05-19T07:49:04.698Z,14.50
2023-05-19T07:51:32.086Z,11.70
2023-05-19T07:53:59.471Z,14.00
2023-05-19T07:56:27.439Z,12.90
2023-05-19T07:58:55.131Z,14.70
2023-05-19T08:01:22.537Z,12.40
2023-05-19T08:03:50.179Z,12.70
2023-05-19T08:06:17.814Z,15.70
2023-05-19T08:08:46.422Z,14.90
2023-05-19T08:11:13.913Z,13.30
2023-05-19T08:13:41.354Z,14.90
2023-05-19T08:16:08.754Z,12.70
2023-05-19T08:18:36.187Z,11.40
2023-05-19T08:21:03.907Z,15.40
2023-05-19T08:23:31.860Z,13.50
2023-05-19T08:26:00.359Z,14.40
2023-05-19T08:28:27.772Z,10.20
2023-05-19T08:30:55.310Z,11.60
2023-05-19T08:33:22.959Z,11.50
2023-05-19T08:35:51.106Z,14.90
2023-05-19T08:38:18.551Z,11.30
2023-05-19T08:40:48.532Z,15.00
2023-05-19T08:43:15.996Z,12.20
2023-05-19T08:45:48.263Z,12.10
2023-05-19T08:48:19.437Z,10.50
2023-05-19T08:51:17.121Z,11.40
2023-05-19T08:53:50.988Z,15.30
2023-05-19T08:56:23.057Z,11.30
2023-05-19T08:58:51.905Z,12.20
2023-05-19T09:01:20.737Z,11.60
2023-05-19T09:03:50.062Z,11.10
2023-05-19T09:06:17.879Z,11.30
2023-05-19T09:08:45.520Z,10.40
2023-05-19T09:11:13.188Z,11.80
2023-05-19T09:13:41.114Z,12.50
2023-05-19T09:16:08.929Z,11.70
2023-05-19T09:18:40.092Z,8.50
2023-05-19T09:21:08.093Z,9.60
2023-05-19T09:23:35.692Z,9.70
2023-05-19T09:26:07.705Z,9.50
2023-05-19T09:28:37.938Z,9.70
2023-05-19T09:31:08.545Z,13.10
2023-05-19T09:33:45.632Z,11.60
2023-05-19T09:36:14.350Z,12.30
2023-05-19T09:38:41.909Z,8.30
2023-05-19T09:41:09.890Z,8.70
2023-05-19T09:43:37.437Z,10.50
2023-05-19T09:46:13.609Z,10.90
2023-05-19T09:48:42.533Z,9.10
2023-05-19T09:51:12.876Z,10.40
2023-05-19T09:53:40.429Z,7.90
2023-05-19T09:56:08.853Z,8.00
2023-05-19T09:58:37.611Z,9.60
2023-05-19T10:01:06.050Z,10.10
2023-05-19T10:03:34.501Z,9.70
2023-05-19T10:06:04.619Z,7.20
2023-05-19T10:08:34.372Z,9.20
2023-05-19T10:11:02.652Z,10.10
2023-05-19T10:13:31.376Z,6.70
2023-05-19T10:16:00.159Z,7.40
2023-05-19T10:18:29.926Z,9.70
2023-05-19T10:20:59.160Z,8.60
2023-05-19T10:23:27.023Z,9.10
2023-05-19T10:25:59.254Z,8.40
2023-05-19T10:28:37.293Z,8.60
2023-05-19T10:31:09.957Z,8.40
2023-05-19T10:34:08.558Z,9.00
2023-05-19T10:36:50.122Z,6.90
2023-05-19T10:39:35.747Z,10.30
2023-05-19T10:42:17.190Z,9.90
2023-05-19T10:45:02.546Z,13.10
2023-05-19T10:47:30.564Z,8.00
2023-05-19T10:50:01.074Z,8.40
2023-05-19T10:52:31.130Z,8.50
2023-05-19T10:54:59.080Z,6.50
2023-05-19T10:57:28.299Z,11.00
2023-05-19T10:59:57.463Z,7.30
2023-05-19T11:02:44.121Z,8.80
2023-05-19T11:05:16.346Z,7.10
2023-05-19T11:07:54.639Z,8.50
2023-05-19T11:10:25.739Z,12.10
2023-05-19T11:12:53.462Z,8.10
2023-05-19T11:15:26.531Z,6.00
2023-05-19T11:17:54.736Z,7.60
2023-05-19T11:20:29.124Z,8.80
2023-05-19T11:23:19.561Z,7.90
2023-05-19T11:25:48.791Z,7.70
2023-05-19T11:28:19.904Z,7.70
2023-05-19T11:30:52.505Z,7.90
2023-05-19T11:33:21.829Z,8.10
2023-05-19T11:35:51.317Z,11.10
2023-05-19T11:38:19.903Z,8.40
2023-05-19T11:40:49.840Z,15.00
2023-05-19T11:43:17.322Z,11.40
2023-05-19T11:45:45.923Z,7.60
2023-05-19T11:48:15.978Z,10.20
2023-05-19T11:50:46.984Z,8.60
2023-05-19T11:53:16.572Z,8.80
2023-05-19T11:55:48.406Z,7.00
2023-05-19T11:58:16.960Z,8.20
2023-05-19T12:00:48.349Z,9.20
2023-05-19T12:03:17.519Z,9.70
2023-05-19T12:05:48.622Z,9.10
2023-05-19T12:08:21.701Z,8.50
2023-05-19T12:10:51.053Z,6.80
2023-05-19T12:13:19.636Z,8.20
2023-05-19T12:15:47.273Z,6.70
2023-05-19T12:18:14.817Z,8.80
2023-05-19T12:20:42.371Z,9.70
2023-05-19T12:23:09.968Z,11.30
2023-05-19T12:25:38.634Z,7.60
2023-05-19T12:28:07.412Z,10.70
2023-05-19T12:30:35.465Z,9.40
2023-05-19T12:33:03.733Z,9.30
2023-05-19T12:35:36.309Z,7.50
2023-05-19T12:38:06.393Z,9.30
2023-05-19T12:40:42.204Z,10.90
2023-05-19T12:43:21.055Z,9.80
2023-05-19T12:45:49.259Z,10.20
2023-05-19T12:48:17.182Z,8.40
2023-05-19T12:50:45.229Z,8.40
2023-05-19T12:53:15.357Z,9.00
2023-05-19T12:55:45.389Z,7.70
2023-05-19T12:58:13.602Z,10.80
2023-05-19T13:00:47.684Z,7.10
2023-05-19T13:03:18.595Z,9.00
2023-05-19T13:05:49.106Z,7.90
2023-05-19T13:08:20.295Z,6.60
2023-05-19T13:10:49.847Z,8.90
2023-05-19T13:13:18.313Z,6.70
2023-05-19T13:15:49.216Z,9.30
2023-05-19T13:18:17.985Z,7.70
2023-05-19T13:20:47.505Z,7.90
2023-05-19T13:23:17.115Z,7.70
2023-05-19T13:25:44.624Z,8.30
2023-05-19T13:28:12.928Z,7.80
2023-05-19T13:30:42.017Z,9.70
2023-05-19T13:33:09.778Z,7.80
2023-05-19T13:35:37.920Z,10.20
2023-05-19T13:38:10.575Z,7.00
2023-05-19T13:40:39.981Z,5.90
2023-05-19T13:43:08.910Z,7.10
2023-05-19T13:45:37.007Z,8.00
2023-05-19T13:48:07.290Z,8.00
2023-05-19T13:50:34.979Z,8.40
2023-05-19T13:53:03.635Z,8.40
2023-05-19T13:55:31.804Z,7.60
2023-05-19T13:57:59.280Z,8.20
2023-05-19T14:00:26.729Z,5.90
2023-05-19T14:02:54.227Z,8.30
2023-05-19T14:05:21.911Z,8.00
2023-05-19T14:07:49.417Z,9.00
2023-05-19T14:10:16.759Z,9.10
2023-05-19T14:13:07.936Z,7.40
2023-05-19T14:15:34.610Z,8.90
2023-05-19T14:18:02.763Z,7.80
2023-05-19T14:20:31.669Z,8.20
2023-05-19T14:22:59.374Z,6.70
2023-05-19T14:25:26.872Z,5.80
2023-05-19T14:27:54.211Z,8.50
2023-05-19T14:30:21.688Z,6.70
2023-05-19T14:32:49.103Z,6.00
2023-05-19T14:35:16.514Z,7.50
2023-05-19T14:37:43.929Z,9.10
2023-05-19T14:40:12.480Z,7.00
2023-05-19T14:42:39.895Z,7.10
2023-05-19T14:45:08.554Z,8.60
2023-05-19T14:47:36.121Z,7.60
2023-05-19T14:50:03.927Z,6.40
2023-05-19T14:52:31.386Z,8.40
2023-05-19T14:54:58.805Z,6.70
2023-05-19T14:57:26.349Z,7.70
2023-05-19T14:59:53.764Z,6.70
2023-05-19T15:02:21.179Z,7.20
2023-05-19T15:04:48.626Z,6.00
2023-05-19T15:07:16.605Z,6.70
2023-05-19T15:09:44.118Z,5.90
2023-05-19T15:12:11.630Z,7.10
2023-05-19T15:14:39.052Z,5.90
2023-05-19T15:17:06.454Z,6.70
2023-05-19T15:19:34.038Z,5.00
2023-05-19T15:22:01.537Z,5.50
2023-05-19T15:24:28.935Z,7.60
2023-05-19T15:26:56.429Z,7.30
2023-05-19T15:29:23.860Z,6.30
2023-05-19T15:31:51.946Z,6.00
2023-05-19T15:34:20.931Z,5.60
2023-05-19T15:36:48.401Z,8.40
2023-05-19T15:39:15.927Z,6.80
2023-05-19T15:41:43.463Z,5.70
2023-05-19T15:44:11.098Z,6.60
2023-05-19T15:46:38.639Z,4.70
2023-05-19T15:49:06.276Z,6.00
2023-05-19T15:51:34.285Z,8.50
2023-05-19T15:54:01.662Z,7.50
2023-05-19T15:56:29.078Z,8.40
2023-05-19T15:58:56.518Z,7.90
2023-05-19T16:01:24.008Z,6.80
2023-05-19T16:03:51.597Z,7.60
2023-05-19T16:06:19.211Z,6.80
2023-05-19T16:08:46.723Z,6.90
2023-05-19T16:11:14.694Z,6.30
2023-05-19T16:13:42.316Z,6.60
2023-05-19T16:16:09.740Z,5.90
2023-05-19T16:18:37.282Z,7.60
2023-05-19T16:21:05.650Z,6.90
2023-05-19T16:23:33.194Z,8.30
2023-05-19T16:26:01.144Z,6.50
2023-05-19T16:28:28.842Z,5.70
2023-05-19T16:31:00.389Z,6.20
2023-05-19T16:33:28.579Z,6.30
2023-05-19T16:35:58.198Z,7.20
2023-05-19T16:38:26.780Z,8.00
2023-05-19T16:40:54.212Z,6.00
2023-05-19T16:43:21.742Z,6.30
2023-05-19T16:45:49.219Z,5.30
2023-05-19T16:48:16.683Z,6.40
2023-05-19T16:50:44.098Z,7.20
2023-05-19T16:53:11.532Z,4.70
2023-05-19T16:55:38.941Z,7.30
2023-05-19T16:58:06.461Z,5.10
2023-05-19T17:00:34.069Z,7.30
2023-05-19T17:03:01.768Z,6.10
2023-05-19T17:05:29.316Z,7.00
2023-05-19T17:07:56.691Z,5.10
2023-05-19T17:10:24.081Z,4.60
2023-05-19T17:12:51.602Z,7.30
2023-05-19T17:15:19.309Z,8.00
2023-05-19T17:17:46.703Z,6.60
2023-05-19T17:20:14.234Z,6.40
2023-05-19T17:22:41.932Z,4.60
2023-05-19T17:25:10.011Z,5.60
2023-05-19T17:27:37.486Z,7.70
2023-05-19T17:30:06.048Z,7.80
2023-05-19T17:32:39.015Z,7.00
2023-05-19T17:35:08.561Z,7.90
2023-05-19T17:37:36.470Z,5.30
2023-05-19T17:40:05.005Z,6.70
2023-05-19T17:42:33.144Z,6.40
2023-05-19T17:45:00.605Z,9.70
2023-05-19T17:47:28.011Z,7.40
2023-05-19T17:49:55.539Z,5.80
2023-05-19T17:52:25.807Z,5.90
2023-05-19T17:54:53.829Z,4.80
2023-05-19T17:57:25.411Z,5.30
2023-05-19T17:59:53.832Z,6.00
2023-05-19T18:02:21.699Z,5.60
2023-05-19T18:04:49.894Z,6.40
2023-05-19T18:07:18.682Z,6.00
2023-05-19T18:09:46.869Z,5.90
2023-05-19T18:12:14.342Z,5.60
2023-05-19T18:14:41.743Z,6.00
2023-05-19T18:17:09.143Z,9.20
2023-05-19T18:19:36.586Z,5.70
2023-05-19T18:22:04.233Z,9.50
2023-05-19T18:24:31.729Z,8.40
2023-05-19T18:26:59.422Z,6.20
2023-05-19T18:29:26.803Z,5.70
2023-05-19T18:31:54.277Z,6.50
2023-05-19T18:34:21.771Z,7.10
2023-05-19T18:36:49.295Z,8.50
2023-05-19T18:39:16.819Z,7.50
2023-05-19T18:41:44.341Z,9.90
2023-05-19T18:44:12.020Z,6.90
2023-05-19T18:46:39.465Z,7.20
2023-05-19T18:49:06.976Z,9.30
2023-05-19T18:51:36.152Z,8.10
2023-05-19T18:54:03.684Z,7.90
2023-05-19T18:56:33.557Z,8.00
2023-05-19T18:59:01.100Z,8.70
2023-05-19T19:01:28.725Z,6.70
2023-05-19T19:03:56.383Z,9.60
2023-05-19T19:06:23.967Z,9.40
2023-05-19T19:08:51.479Z,7.50
2023-05-19T19:11:19.151Z,9.60
2023-05-19T19:13:47.078Z,9.90
2023-05-19T19:16:14.530Z,9.40
2023-05-19T19:18:42.056Z,8.70
2023-05-19T19:21:09.629Z,11.00
2023-05-19T19:23:37.174Z,9.30
2023-05-19T19:26:04.634Z,7.40
2023-05-19T19:28:32.368Z,6.50
2023-05-19T19:30:59.765Z,11.10
2023-05-19T19:33:27.205Z,9.00
2023-05-19T19:35:54.645Z,8.00
2023-05-19T19:38:22.071Z,9.80
2023-05-19T19:40:52.592Z,7.80
2023-05-19T19:43:20.243Z,8.10
2023-05-19T19:45:47.665Z,7.10
2023-05-19T19:48:15.071Z,6.30
2023-05-19T19:50:42.568Z,7.20
2023-05-19T19:53:10.028Z,9.00
2023-05-19T19:55:37.400Z,9.90
2023-05-19T19:58:04.918Z,8.90
2023-05-19T20:00:32.501Z,9.70
2023-05-19T20:03:04.971Z,8.80
2023-05-19T20:05:33.259Z,9.50
2023-05-19T20:08:00.828Z,9.00
2023-05-19T20:10:28.293Z,9.50
2023-05-19T20:12:56.174Z,10.20
2023-05-19T20:15:23.656Z,8.50
2023-05-19T20:17:51.293Z,9.70
2023-05-19T20:20:18.892Z,7.80
2023-05-19T20:22:46.284Z,8.60
2023-05-19T20:25:13.756Z,8.90
2023-05-19T20:27:41.190Z,10.10
2023-05-19T20:30:09.417Z,10.60
2023-05-19T20:32:37.030Z,9.10
2023-05-19T20:35:05.316Z,11.80
2023-05-19T20:37:32.753Z,7.30
2023-05-19T20:40:00.357Z,8.30
2023-05-19T20:42:27.787Z,8.70
2023-05-19T20:44:55.878Z,7.20
2023-05-19T20:47:23.390Z,10.10
2023-05-19T20:49:50.850Z,8.00
2023-05-19T20:52:18.830Z,8.80
2023-05-19T20:54:46.541Z,9.90
2023-05-19T20:57:14.019Z,10.80
2023-05-19T20:59:41.423Z,8.60
2023-05-19T21:02:09.613Z,9.90
2023-05-19T21:04:38.740Z,11.30
2023-05-19T21:07:06.580Z,11.20
2023-05-19T21:09:34.069Z,11.40
2023-05-19T21:12:02.085Z,12.10
2023-05-19T21:14:29.451Z,11.40
2023-05-19T21:16:57.118Z,11.40
2023-05-19T21:19:24.751Z,9.80
2023-05-19T21:21:52.319Z,11.80
2023-05-19T21:24:19.720Z,11.50
2023-05-19T21:26:49.326Z,11.20
2023-05-19T21:29:17.023Z,12.60
2023-05-19T21:31:44.420Z,12.90
2023-05-19T21:34:11.964Z,14.40
2023-05-19T21:36:39.623Z,14.80
2023-05-19T21:39:07.103Z,9.70
2023-05-19T21:41:35.653Z,10.50
2023-05-19T21:44:03.645Z,12.30
2023-05-19T21:46:31.173Z,10.80
2023-05-19T21:48:58.726Z,11.30
2023-05-19T21:51:26.124Z,11.30
2023-05-19T21:53:53.504Z,13.40
2023-05-19T21:56:21.234Z,13.20
2023-05-19T21:58:48.649Z,10.00
2023-05-19T22:01:16.079Z,12.10
2023-05-19T22:03:43.585Z,10.30
2023-05-19T22:06:11.337Z,11.70
2023-05-19T22:08:38.780Z,13.30
2023-05-19T22:11:06.851Z,15.10
2023-05-19T22:13:34.281Z,14.70
2023-05-19T22:16:04.505Z,11.30
2023-05-19T22:18:32.042Z,17.20
2023-05-19T22:20:59.522Z,16.30
2023-05-19T22:23:26.898Z,14.90
2023-05-19T22:25:54.384Z,18.70
2023-05-19T22:28:21.826Z,16.10
2023-05-19T22:30:49.419Z,18.40
2023-05-19T22:33:16.855Z,14.20
2023-05-19T22:35:44.289Z,18.90
2023-05-19T22:38:11.939Z,17.80
2023-05-19T22:40:39.673Z,12.20
2023-05-19T22:43:07.105Z,13.40
2023-05-19T22:45:37.095Z,15.90
2023-05-19T22:48:05.517Z,13.40
2023-05-19T22:50:33.082Z,19.30
2023-05-19T22:53:00.685Z,14.80
2023-05-19T22:55:28.152Z,16.50
2023-05-19T22:57:56.236Z,15.40
2023-05-19T23:00:23.901Z,16.20
2023-05-19T23:02:51.478Z,14.30
2023-05-19T23:05:18.991Z,16.70
2023-05-19T23:07:47.069Z,17.20
2023-05-19T23:10:14.508Z,17.90
2023-05-19T23:12:42.615Z,16.30
2023-05-19T23:15:11.313Z,19.30
2023-05-19T23:17:38.989Z,14.30
2023-05-19T23:20:07.529Z,13.70
2023-05-19T23:22:34.957Z,13.80
2023-05-19T23:25:05.799Z,14.80
2023-05-19T23:27:36.844Z,14.20
2023-05-19T23:30:05.552Z,12.80
2023-05-19T23:32:33.012Z,16.90
2023-05-19T23:35:16.214Z,15.50
2023-05-19T23:37:43.771Z,16.50
2023-05-19T23:40:12.499Z,15.20
2023-05-19T23:42:40.031Z,17.10
2023-05-19T23:45:09.757Z,17.50
2023-05-19T23:47:37.345Z,14.10
2023-05-19T23:50:05.462Z,15.00
2023-05-19T23:52:32.927Z,15.10
2023-05-19T23:55:00.573Z,14.20
2023-05-19T23:57:28.001Z,16.00
2023-05-19T23:59:55.710Z,15.10
